sensor_id;sensor_type;location;lat;lon;timestamp;P1;durP1;ratioP1;P2;durP2;ratioP2
51594;SDS011;37677;53.254;6.594;2023-05-07T00:01:46;26.95;;;24.15;;
51594;SDS011;37677;53.254;6.594;2023-05-07T00:04:12;26.23;;;23.45;;
51594;SDS011;37677;53.254;6.594;2023-05-07T00:06:38;30.48;;;24.58;;
51594;SDS011;37677;53.254;6.594;2023-05-07T00:09:04;28.48;;;23.60;;
51594;SDS011;37677;53.254;6.594;2023-05-07T00:11:31;29.35;;;24.60;;
51594;SDS011;37677;53.254;6.594;2023-05-07T00:13:56;27.33;;;23.92;;
51594;SDS011;37677;53.254;6.594;2023-05-07T00:16:22;27.98;;;25.08;;
51594;SDS011;37677;53.254;6.594;2023-05-07T00:18:48;26.95;;;24.15;;
51594;SDS011;37677;53.254;6.594;2023-05-07T00:21:13;28.25;;;25.20;;
51594;SDS011;37677;53.254;6.594;2023-05-07T00:23:39;27.80;;;24.90;;
51594;SDS011;37677;53.254;6.594;2023-05-07T00:26:05;27.92;;;24.95;;
51594;SDS011;37677;53.254;6.594;2023-05-07T00:28:30;28.17;;;25.27;;
51594;SDS011;37677;53.254;6.594;2023-05-07T00:30:56;28.15;;;25.13;;
51594;SDS011;37677;53.254;6.594;2023-05-07T00:33:22;28.95;;;25.00;;
51594;SDS011;37677;53.254;6.594;2023-05-07T00:35:48;28.65;;;25.13;;
51594;SDS011;37677;53.254;6.594;2023-05-07T00:38:13;29.20;;;24.83;;
51594;SDS011;37677;53.254;6.594;2023-05-07T00:40:39;27.65;;;24.75;;
51594;SDS011;37677;53.254;6.594;2023-05-07T00:43:05;28.40;;;25.48;;
51594;SDS011;37677;53.254;6.594;2023-05-07T00:45:32;29.58;;;25.90;;
51594;SDS011;37677;53.254;6.594;2023-05-07T00:47:59;29.27;;;26.30;;
51594;SDS011;37677;53.254;6.594;2023-05-07T00:50:26;29.67;;;26.48;;
51594;SDS011;37677;53.254;6.594;2023-05-07T00:52:52;35.22;;;26.75;;
51594;SDS011;37677;53.254;6.594;2023-05-07T00:55:18;29.73;;;26.73;;
51594;SDS011;37677;53.254;6.594;2023-05-07T00:57:45;32.25;;;27.17;;
51594;SDS011;37677;53.254;6.594;2023-05-07T01:00:11;30.35;;;27.08;;
51594;SDS011;37677;53.254;6.594;2023-05-07T01:02:40;32.33;;;29.02;;
51594;SDS011;37677;53.254;6.594;2023-05-07T01:05:07;34.13;;;30.65;;
51594;SDS011;37677;53.254;6.594;2023-05-07T01:07:38;33.65;;;30.27;;
51594;SDS011;37677;53.254;6.594;2023-05-07T01:10:05;34.03;;;30.65;;
51594;SDS011;37677;53.254;6.594;2023-05-07T01:12:32;34.22;;;30.75;;
51594;SDS011;37677;53.254;6.594;2023-05-07T01:15:00;39.13;;;32.80;;
51594;SDS011;37677;53.254;6.594;2023-05-07T01:17:26;36.03;;;32.35;;
51594;SDS011;37677;53.254;6.594;2023-05-07T01:19:52;36.10;;;32.42;;
51594;SDS011;37677;53.254;6.594;2023-05-07T01:22:28;39.28;;;35.08;;
51594;SDS011;37677;53.254;6.594;2023-05-07T01:24:59;40.88;;;36.40;;
51594;SDS011;37677;53.254;6.594;2023-05-07T01:27:26;39.33;;;35.10;;
51594;SDS011;37677;53.254;6.594;2023-05-07T01:29:52;41.20;;;36.92;;
51594;SDS011;37677;53.254;6.594;2023-05-07T01:32:23;39.33;;;35.53;;
51594;SDS011;37677;53.254;6.594;2023-05-07T01:34:55;41.85;;;37.28;;
51594;SDS011;37677;53.254;6.594;2023-05-07T01:37:22;43.38;;;38.47;;
51594;SDS011;37677;53.254;6.594;2023-05-07T01:39:49;43.17;;;38.53;;
51594;SDS011;37677;53.254;6.594;2023-05-07T01:42:15;41.75;;;37.63;;
51594;SDS011;37677;53.254;6.594;2023-05-07T01:44:42;43.42;;;38.90;;
51594;SDS011;37677;53.254;6.594;2023-05-07T01:47:08;43.47;;;38.92;;
51594;SDS011;37677;53.254;6.594;2023-05-07T01:49:37;43.47;;;39.03;;
51594;SDS011;37677;53.254;6.594;2023-05-07T01:52:03;42.97;;;38.75;;
51594;SDS011;37677;53.254;6.594;2023-05-07T01:54:29;44.67;;;40.08;;
51594;SDS011;37677;53.254;6.594;2023-05-07T01:56:56;48.08;;;39.83;;
51594;SDS011;37677;53.254;6.594;2023-05-07T01:59:22;43.95;;;39.20;;
51594;SDS011;37677;53.254;6.594;2023-05-07T02:01:48;44.22;;;39.47;;
51594;SDS011;37677;53.254;6.594;2023-05-07T02:04:13;44.58;;;39.97;;
51594;SDS011;37677;53.254;6.594;2023-05-07T02:06:40;43.42;;;38.95;;
51594;SDS011;37677;53.254;6.594;2023-05-07T02:09:06;47.13;;;42.15;;
51594;SDS011;37677;53.254;6.594;2023-05-07T02:11:34;47.85;;;42.63;;
51594;SDS011;37677;53.254;6.594;2023-05-07T02:14:00;50.55;;;45.13;;
51594;SDS011;37677;53.254;6.594;2023-05-07T02:16:26;49.75;;;44.38;;
51594;SDS011;37677;53.254;6.594;2023-05-07T02:18:52;51.00;;;45.83;;
51594;SDS011;37677;53.254;6.594;2023-05-07T02:21:17;52.92;;;47.22;;
51594;SDS011;37677;53.254;6.594;2023-05-07T02:23:43;54.35;;;48.67;;
51594;SDS011;37677;53.254;6.594;2023-05-07T02:26:10;56.58;;;50.70;;
51594;SDS011;37677;53.254;6.594;2023-05-07T02:28:36;56.97;;;50.80;;
51594;SDS011;37677;53.254;6.594;2023-05-07T02:31:02;56.63;;;50.47;;
51594;SDS011;37677;53.254;6.594;2023-05-07T02:33:28;59.42;;;53.05;;
51594;SDS011;37677;53.254;6.594;2023-05-07T02:35:54;54.28;;;47.88;;
51594;SDS011;37677;53.254;6.594;2023-05-07T02:38:20;56.75;;;50.85;;
51594;SDS011;37677;53.254;6.594;2023-05-07T02:40:47;54.28;;;48.47;;
51594;SDS011;37677;53.254;6.594;2023-05-07T02:43:13;52.63;;;46.97;;
51594;SDS011;37677;53.254;6.594;2023-05-07T02:45:38;52.53;;;44.65;;
51594;SDS011;37677;53.254;6.594;2023-05-07T02:48:04;49.30;;;41.40;;
51594;SDS011;37677;53.254;6.594;2023-05-07T02:50:33;46.00;;;40.88;;
51594;SDS011;37677;53.254;6.594;2023-05-07T02:52:58;44.28;;;39.00;;
51594;SDS011;37677;53.254;6.594;2023-05-07T02:55:24;43.38;;;37.63;;
51594;SDS011;37677;53.254;6.594;2023-05-07T02:57:50;46.63;;;39.90;;
51594;SDS011;37677;53.254;6.594;2023-05-07T03:00:16;44.85;;;40.00;;
51594;SDS011;37677;53.254;6.594;2023-05-07T03:02:44;50.33;;;44.88;;
51594;SDS011;37677;53.254;6.594;2023-05-07T03:05:10;57.42;;;49.40;;
51594;SDS011;37677;53.254;6.594;2023-05-07T03:07:36;57.50;;;51.15;;
51594;SDS011;37677;53.254;6.594;2023-05-07T03:10:03;54.78;;;48.05;;
51594;SDS011;37677;53.254;6.594;2023-05-07T03:12:29;51.15;;;44.58;;
51594;SDS011;37677;53.254;6.594;2023-05-07T03:14:56;49.13;;;41.90;;
51594;SDS011;37677;53.254;6.594;2023-05-07T03:17:21;45.80;;;40.85;;
51594;SDS011;37677;53.254;6.594;2023-05-07T03:19:47;43.40;;;38.28;;
51594;SDS011;37677;53.254;6.594;2023-05-07T03:22:13;40.30;;;35.70;;
51594;SDS011;37677;53.254;6.594;2023-05-07T03:24:39;39.97;;;35.63;;
51594;SDS011;37677;53.254;6.594;2023-05-07T03:27:04;39.65;;;35.45;;
51594;SDS011;37677;53.254;6.594;2023-05-07T03:29:30;40.25;;;35.78;;
51594;SDS011;37677;53.254;6.594;2023-05-07T03:31:56;42.42;;;36.85;;
51594;SDS011;37677;53.254;6.594;2023-05-07T03:34:22;43.08;;;36.65;;
51594;SDS011;37677;53.254;6.594;2023-05-07T03:36:48;42.95;;;38.17;;
51594;SDS011;37677;53.254;6.594;2023-05-07T03:39:14;43.10;;;38.40;;
51594;SDS011;37677;53.254;6.594;2023-05-07T03:41:40;41.40;;;36.80;;
51594;SDS011;37677;53.254;6.594;2023-05-07T03:44:06;44.70;;;38.70;;
51594;SDS011;37677;53.254;6.594;2023-05-07T03:46:32;45.28;;;40.42;;
51594;SDS011;37677;53.254;6.594;2023-05-07T03:48:59;52.17;;;43.55;;
51594;SDS011;37677;53.254;6.594;2023-05-07T03:51:25;50.28;;;42.00;;
51594;SDS011;37677;53.254;6.594;2023-05-07T03:53:51;52.13;;;43.22;;
51594;SDS011;37677;53.254;6.594;2023-05-07T03:56:22;53.72;;;43.10;;
51594;SDS011;37677;53.254;6.594;2023-05-07T03:58:51;50.38;;;44.58;;
51594;SDS011;37677;53.254;6.594;2023-05-07T04:01:17;54.95;;;46.00;;
51594;SDS011;37677;53.254;6.594;2023-05-07T04:03:43;52.72;;;45.70;;
51594;SDS011;37677;53.254;6.594;2023-05-07T04:06:08;53.47;;;46.15;;
51594;SDS011;37677;53.254;6.594;2023-05-07T04:08:34;50.65;;;44.38;;
51594;SDS011;37677;53.254;6.594;2023-05-07T04:11:00;50.13;;;43.88;;
51594;SDS011;37677;53.254;6.594;2023-05-07T04:13:25;49.25;;;43.75;;
51594;SDS011;37677;53.254;6.594;2023-05-07T04:15:52;48.13;;;42.80;;
51594;SDS011;37677;53.254;6.594;2023-05-07T04:18:18;48.42;;;41.80;;
51594;SDS011;37677;53.254;6.594;2023-05-07T04:20:45;46.10;;;40.03;;
51594;SDS011;37677;53.254;6.594;2023-05-07T04:23:10;46.38;;;40.25;;
51594;SDS011;37677;53.254;6.594;2023-05-07T04:25:36;42.13;;;37.90;;
51594;SDS011;37677;53.254;6.594;2023-05-07T04:28:02;43.38;;;38.13;;
51594;SDS011;37677;53.254;6.594;2023-05-07T04:30:27;42.53;;;37.90;;
51594;SDS011;37677;53.254;6.594;2023-05-07T04:32:53;39.85;;;35.55;;
51594;SDS011;37677;53.254;6.594;2023-05-07T04:35:19;44.10;;;36.80;;
51594;SDS011;37677;53.254;6.594;2023-05-07T04:37:45;39.45;;;35.35;;
51594;SDS011;37677;53.254;6.594;2023-05-07T04:40:10;41.65;;;36.95;;
51594;SDS011;37677;53.254;6.594;2023-05-07T04:42:36;39.30;;;35.03;;
51594;SDS011;37677;53.254;6.594;2023-05-07T04:45:02;40.35;;;36.25;;
51594;SDS011;37677;53.254;6.594;2023-05-07T04:47:29;43.45;;;36.50;;
51594;SDS011;37677;53.254;6.594;2023-05-07T04:49:55;40.80;;;36.38;;
51594;SDS011;37677;53.254;6.594;2023-05-07T04:52:22;40.45;;;36.35;;
51594;SDS011;37677;53.254;6.594;2023-05-07T04:54:47;40.30;;;35.78;;
51594;SDS011;37677;53.254;6.594;2023-05-07T04:57:13;39.00;;;34.45;;
51594;SDS011;37677;53.254;6.594;2023-05-07T04:59:39;38.60;;;34.45;;
51594;SDS011;37677;53.254;6.594;2023-05-07T05:02:05;37.15;;;33.20;;
51594;SDS011;37677;53.254;6.594;2023-05-07T05:04:30;39.35;;;33.55;;
51594;SDS011;37677;53.254;6.594;2023-05-07T05:06:57;35.78;;;31.88;;
51594;SDS011;37677;53.254;6.594;2023-05-07T05:09:23;36.55;;;32.58;;
51594;SDS011;37677;53.254;6.594;2023-05-07T05:11:48;36.15;;;32.55;;
51594;SDS011;37677;53.254;6.594;2023-05-07T05:14:14;35.45;;;31.67;;
51594;SDS011;37677;53.254;6.594;2023-05-07T05:16:40;35.08;;;31.38;;
51594;SDS011;37677;53.254;6.594;2023-05-07T05:19:05;39.53;;;33.25;;
51594;SDS011;37677;53.254;6.594;2023-05-07T05:21:31;40.47;;;36.15;;
51594;SDS011;37677;53.254;6.594;2023-05-07T05:23:58;42.13;;;35.72;;
51594;SDS011;37677;53.254;6.594;2023-05-07T05:26:24;44.35;;;39.65;;
51594;SDS011;37677;53.254;6.594;2023-05-07T05:28:49;41.85;;;37.45;;
51594;SDS011;37677;53.254;6.594;2023-05-07T05:31:18;40.42;;;36.38;;
51594;SDS011;37677;53.254;6.594;2023-05-07T05:33:44;40.25;;;36.20;;
51594;SDS011;37677;53.254;6.594;2023-05-07T05:36:10;37.17;;;33.38;;
51594;SDS011;37677;53.254;6.594;2023-05-07T05:38:37;36.03;;;32.42;;
51594;SDS011;37677;53.254;6.594;2023-05-07T05:41:02;35.80;;;32.20;;
51594;SDS011;37677;53.254;6.594;2023-05-07T05:43:28;36.60;;;32.70;;
51594;SDS011;37677;53.254;6.594;2023-05-07T05:45:55;34.17;;;30.70;;
51594;SDS011;37677;53.254;6.594;2023-05-07T05:48:21;36.75;;;32.95;;
51594;SDS011;37677;53.254;6.594;2023-05-07T05:50:46;41.95;;;37.78;;
51594;SDS011;37677;53.254;6.594;2023-05-07T05:53:12;49.80;;;44.83;;
51594;SDS011;37677;53.254;6.594;2023-05-07T05:55:38;50.53;;;45.45;;
51594;SDS011;37677;53.254;6.594;2023-05-07T05:58:03;48.65;;;43.67;;
51594;SDS011;37677;53.254;6.594;2023-05-07T06:00:29;44.25;;;39.85;;
51594;SDS011;37677;53.254;6.594;2023-05-07T06:02:55;42.58;;;38.25;;
51594;SDS011;37677;53.254;6.594;2023-05-07T06:05:21;39.08;;;35.17;;
51594;SDS011;37677;53.254;6.594;2023-05-07T06:07:46;40.33;;;36.25;;
51594;SDS011;37677;53.254;6.594;2023-05-07T06:10:12;36.10;;;32.30;;
51594;SDS011;37677;53.254;6.594;2023-05-07T06:12:38;35.78;;;32.35;;
51594;SDS011;37677;53.254;6.594;2023-05-07T06:15:04;38.53;;;34.78;;
51594;SDS011;37677;53.254;6.594;2023-05-07T06:17:30;48.47;;;43.58;;
51594;SDS011;37677;53.254;6.594;2023-05-07T06:19:56;50.20;;;45.22;;
51594;SDS011;37677;53.254;6.594;2023-05-07T06:22:22;51.50;;;46.50;;
51594;SDS011;37677;53.254;6.594;2023-05-07T06:24:48;46.70;;;42.20;;
51594;SDS011;37677;53.254;6.594;2023-05-07T06:27:14;48.97;;;44.17;;
51594;SDS011;37677;53.254;6.594;2023-05-07T06:29:40;49.78;;;44.70;;
51594;SDS011;37677;53.254;6.594;2023-05-07T06:32:09;47.80;;;43.20;;
51594;SDS011;37677;53.254;6.594;2023-05-07T06:34:36;45.20;;;40.90;;
51594;SDS011;37677;53.254;6.594;2023-05-07T06:37:02;45.33;;;40.80;;
51594;SDS011;37677;53.254;6.594;2023-05-07T06:39:28;41.25;;;36.95;;
51594;SDS011;37677;53.254;6.594;2023-05-07T06:41:54;38.10;;;34.33;;
51594;SDS011;37677;53.254;6.594;2023-05-07T06:44:20;35.53;;;31.92;;
51594;SDS011;37677;53.254;6.594;2023-05-07T06:46:46;34.22;;;30.98;;
51594;SDS011;37677;53.254;6.594;2023-05-07T06:49:12;34.70;;;31.00;;
51594;SDS011;37677;53.254;6.594;2023-05-07T06:51:39;30.92;;;27.67;;
51594;SDS011;37677;53.254;6.594;2023-05-07T06:54:04;28.80;;;26.00;;
51594;SDS011;37677;53.254;6.594;2023-05-07T06:56:30;28.40;;;25.50;;
51594;SDS011;37677;53.254;6.594;2023-05-07T06:58:57;28.48;;;25.58;;
51594;SDS011;37677;53.254;6.594;2023-05-07T07:01:22;28.50;;;25.60;;
51594;SDS011;37677;53.254;6.594;2023-05-07T07:03:48;28.20;;;25.40;;
51594;SDS011;37677;53.254;6.594;2023-05-07T07:06:14;28.92;;;25.77;;
51594;SDS011;37677;53.254;6.594;2023-05-07T07:08:39;28.38;;;25.52;;
51594;SDS011;37677;53.254;6.594;2023-05-07T07:11:05;26.65;;;23.95;;
51594;SDS011;37677;53.254;6.594;2023-05-07T07:13:31;26.92;;;24.13;;
51594;SDS011;37677;53.254;6.594;2023-05-07T07:15:57;29.65;;;26.65;;
51594;SDS011;37677;53.254;6.594;2023-05-07T07:18:23;28.75;;;25.65;;
51594;SDS011;37677;53.254;6.594;2023-05-07T07:20:49;27.55;;;24.88;;
51594;SDS011;37677;53.254;6.594;2023-05-07T07:23:16;27.50;;;24.80;;
51594;SDS011;37677;53.254;6.594;2023-05-07T07:25:44;28.08;;;25.35;;
51594;SDS011;37677;53.254;6.594;2023-05-07T07:28:10;28.02;;;25.10;;
51594;SDS011;37677;53.254;6.594;2023-05-07T07:30:36;29.05;;;26.13;;
51594;SDS011;37677;53.254;6.594;2023-05-07T07:33:02;27.58;;;24.92;;
51594;SDS011;37677;53.254;6.594;2023-05-07T07:35:29;27.83;;;25.02;;
51594;SDS011;37677;53.254;6.594;2023-05-07T07:37:55;27.80;;;25.10;;
51594;SDS011;37677;53.254;6.594;2023-05-07T07:40:21;30.27;;;27.10;;
51594;SDS011;37677;53.254;6.594;2023-05-07T07:42:47;29.02;;;26.10;;
51594;SDS011;37677;53.254;6.594;2023-05-07T07:45:12;27.90;;;25.00;;
51594;SDS011;37677;53.254;6.594;2023-05-07T07:47:39;27.52;;;24.73;;
51594;SDS011;37677;53.254;6.594;2023-05-07T07:50:05;27.95;;;25.05;;
51594;SDS011;37677;53.254;6.594;2023-05-07T07:52:32;27.63;;;24.75;;
51594;SDS011;37677;53.254;6.594;2023-05-07T07:54:58;28.08;;;25.17;;
51594;SDS011;37677;53.254;6.594;2023-05-07T07:57:23;27.73;;;24.85;;
51594;SDS011;37677;53.254;6.594;2023-05-07T07:59:49;27.65;;;24.90;;
51594;SDS011;37677;53.254;6.594;2023-05-07T08:02:15;27.95;;;25.13;;
51594;SDS011;37677;53.254;6.594;2023-05-07T08:04:41;28.55;;;25.65;;
51594;SDS011;37677;53.254;6.594;2023-05-07T08:07:09;28.52;;;25.63;;
51594;SDS011;37677;53.254;6.594;2023-05-07T08:09:35;27.95;;;25.10;;
51594;SDS011;37677;53.254;6.594;2023-05-07T08:12:02;28.85;;;25.95;;
51594;SDS011;37677;53.254;6.594;2023-05-07T08:14:28;29.00;;;25.90;;
51594;SDS011;37677;53.254;6.594;2023-05-07T08:16:54;28.02;;;25.25;;
51594;SDS011;37677;53.254;6.594;2023-05-07T08:19:20;27.20;;;24.48;;
51594;SDS011;37677;53.254;6.594;2023-05-07T08:21:46;27.42;;;24.83;;
51594;SDS011;37677;53.254;6.594;2023-05-07T08:24:13;28.05;;;25.15;;
51594;SDS011;37677;53.254;6.594;2023-05-07T08:26:41;28.02;;;25.02;;
51594;SDS011;37677;53.254;6.594;2023-05-07T08:29:08;28.15;;;25.23;;
51594;SDS011;37677;53.254;6.594;2023-05-07T08:31:34;28.00;;;25.00;;
51594;SDS011;37677;53.254;6.594;2023-05-07T08:33:59;26.63;;;24.02;;
51594;SDS011;37677;53.254;6.594;2023-05-07T08:36:25;27.98;;;25.27;;
51594;SDS011;37677;53.254;6.594;2023-05-07T08:38:52;27.98;;;24.98;;
51594;SDS011;37677;53.254;6.594;2023-05-07T08:41:18;27.65;;;24.92;;
51594;SDS011;37677;53.254;6.594;2023-05-07T08:43:47;26.40;;;23.65;;
51594;SDS011;37677;53.254;6.594;2023-05-07T08:46:21;27.63;;;24.88;;
51594;SDS011;37677;53.254;6.594;2023-05-07T08:48:50;26.60;;;23.92;;
51594;SDS011;37677;53.254;6.594;2023-05-07T08:51:20;27.08;;;24.20;;
51594;SDS011;37677;53.254;6.594;2023-05-07T08:53:46;27.38;;;24.67;;
51594;SDS011;37677;53.254;6.594;2023-05-07T08:56:16;28.05;;;25.05;;
51594;SDS011;37677;53.254;6.594;2023-05-07T08:58:43;26.50;;;23.17;;
51594;SDS011;37677;53.254;6.594;2023-05-07T09:01:10;26.20;;;23.50;;
51594;SDS011;37677;53.254;6.594;2023-05-07T09:03:42;26.75;;;23.92;;
51594;SDS011;37677;53.254;6.594;2023-05-07T09:06:11;27.13;;;24.38;;
51594;SDS011;37677;53.254;6.594;2023-05-07T09:08:37;26.13;;;23.52;;
51594;SDS011;37677;53.254;6.594;2023-05-07T09:11:03;26.02;;;23.35;;
51594;SDS011;37677;53.254;6.594;2023-05-07T09:13:31;24.52;;;22.02;;
51594;SDS011;37677;53.254;6.594;2023-05-07T09:15:57;29.85;;;23.35;;
51594;SDS011;37677;53.254;6.594;2023-05-07T09:18:26;26.58;;;23.92;;
51594;SDS011;37677;53.254;6.594;2023-05-07T09:20:52;25.02;;;22.55;;
51594;SDS011;37677;53.254;6.594;2023-05-07T09:23:18;25.83;;;23.35;;
51594;SDS011;37677;53.254;6.594;2023-05-07T09:25:43;26.67;;;24.15;;
51594;SDS011;37677;53.254;6.594;2023-05-07T09:28:09;25.35;;;22.88;;
51594;SDS011;37677;53.254;6.594;2023-05-07T09:30:36;25.90;;;23.30;;
51594;SDS011;37677;53.254;6.594;2023-05-07T09:33:02;27.50;;;24.73;;
51594;SDS011;37677;53.254;6.594;2023-05-07T09:35:29;26.85;;;24.25;;
51594;SDS011;37677;53.254;6.594;2023-05-07T09:37:55;24.83;;;22.23;;
51594;SDS011;37677;53.254;6.594;2023-05-07T09:40:27;25.95;;;23.33;;
51594;SDS011;37677;53.254;6.594;2023-05-07T09:42:54;25.17;;;22.80;;
51594;SDS011;37677;53.254;6.594;2023-05-07T09:45:27;24.65;;;22.27;;
51594;SDS011;37677;53.254;6.594;2023-05-07T09:47:54;24.73;;;22.27;;
51594;SDS011;37677;53.254;6.594;2023-05-07T09:50:28;23.77;;;21.48;;
51594;SDS011;37677;53.254;6.594;2023-05-07T09:52:56;22.70;;;20.38;;
51594;SDS011;37677;53.254;6.594;2023-05-07T09:55:22;23.63;;;21.20;;
51594;SDS011;37677;53.254;6.594;2023-05-07T09:57:50;23.38;;;21.35;;
51594;SDS011;37677;53.254;6.594;2023-05-07T10:00:18;23.95;;;21.65;;
51594;SDS011;37677;53.254;6.594;2023-05-07T10:02:46;23.45;;;21.13;;
51594;SDS011;37677;53.254;6.594;2023-05-07T10:05:19;22.60;;;20.60;;
51594;SDS011;37677;53.254;6.594;2023-05-07T10:07:47;21.88;;;19.77;;
51594;SDS011;37677;53.254;6.594;2023-05-07T10:10:14;23.13;;;20.65;;
51594;SDS011;37677;53.254;6.594;2023-05-07T10:12:41;21.13;;;19.17;;
51594;SDS011;37677;53.254;6.594;2023-05-07T10:15:07;20.75;;;18.75;;
51594;SDS011;37677;53.254;6.594;2023-05-07T10:17:39;21.90;;;19.83;;
51594;SDS011;37677;53.254;6.594;2023-05-07T10:20:06;21.98;;;19.88;;
51594;SDS011;37677;53.254;6.594;2023-05-07T10:22:45;21.00;;;18.92;;
51594;SDS011;37677;53.254;6.594;2023-05-07T10:25:17;20.83;;;18.92;;
51594;SDS011;37677;53.254;6.594;2023-05-07T10:27:48;21.52;;;19.45;;
51594;SDS011;37677;53.254;6.594;2023-05-07T10:33:26;21.20;;;19.10;;
51594;SDS011;37677;53.254;6.594;2023-05-07T10:35:55;20.23;;;18.27;;
51594;SDS011;37677;53.254;6.594;2023-05-07T10:38:25;19.40;;;17.60;;
51594;SDS011;37677;53.254;6.594;2023-05-07T10:40:53;20.48;;;18.58;;
51594;SDS011;37677;53.254;6.594;2023-05-07T10:43:18;19.15;;;17.33;;
51594;SDS011;37677;53.254;6.594;2023-05-07T10:46:08;21.13;;;19.10;;
51594;SDS011;37677;53.254;6.594;2023-05-07T10:51:28;19.20;;;17.23;;
51594;SDS011;37677;53.254;6.594;2023-05-07T10:56:38;19.63;;;17.73;;
51594;SDS011;37677;53.254;6.594;2023-05-07T11:01:49;16.50;;;14.90;;
51594;SDS011;37677;53.254;6.594;2023-05-07T11:04:16;18.00;;;16.05;;
51594;SDS011;37677;53.254;6.594;2023-05-07T11:06:53;18.60;;;16.73;;
51594;SDS011;37677;53.254;6.594;2023-05-07T11:15:14;17.10;;;15.52;;
51594;SDS011;37677;53.254;6.594;2023-05-07T11:17:58;18.00;;;16.10;;
51594;SDS011;37677;53.254;6.594;2023-05-07T11:26:05;17.13;;;15.63;;
51594;SDS011;37677;53.254;6.594;2023-05-07T11:28:41;16.33;;;14.77;;
51594;SDS011;37677;53.254;6.594;2023-05-07T11:31:08;15.65;;;14.15;;
51594;SDS011;37677;53.254;6.594;2023-05-07T11:33:34;16.25;;;14.65;;
51594;SDS011;37677;53.254;6.594;2023-05-07T11:36:04;18.20;;;13.70;;
51594;SDS011;37677;53.254;6.594;2023-05-07T11:38:35;16.05;;;14.35;;
51594;SDS011;37677;53.254;6.594;2023-05-07T11:41:05;14.32;;;13.05;;
51594;SDS011;37677;53.254;6.594;2023-05-07T11:43:32;15.70;;;14.30;;
51594;SDS011;37677;53.254;6.594;2023-05-07T11:46:08;14.65;;;13.20;;
51594;SDS011;37677;53.254;6.594;2023-05-07T11:48:35;16.10;;;14.70;;
51594;SDS011;37677;53.254;6.594;2023-05-07T11:51:02;15.32;;;13.77;;
51594;SDS011;37677;53.254;6.594;2023-05-07T11:53:36;15.50;;;13.88;;
51594;SDS011;37677;53.254;6.594;2023-05-07T11:56:12;15.32;;;13.85;;
51594;SDS011;37677;53.254;6.594;2023-05-07T11:58:39;14.50;;;13.02;;
51594;SDS011;37677;53.254;6.594;2023-05-07T12:01:09;14.32;;;12.93;;
51594;SDS011;37677;53.254;6.594;2023-05-07T12:03:37;14.60;;;13.30;;
51594;SDS011;37677;53.254;6.594;2023-05-07T12:06:07;13.50;;;12.27;;
51594;SDS011;37677;53.254;6.594;2023-05-07T12:08:36;12.90;;;11.65;;
51594;SDS011;37677;53.254;6.594;2023-05-07T12:11:03;15.13;;;11.90;;
51594;SDS011;37677;53.254;6.594;2023-05-07T12:13:31;13.82;;;12.45;;
51594;SDS011;37677;53.254;6.594;2023-05-07T12:15:57;14.13;;;12.82;;
51594;SDS011;37677;53.254;6.594;2023-05-07T12:18:23;13.38;;;12.18;;
51594;SDS011;37677;53.254;6.594;2023-05-07T12:20:50;13.82;;;12.55;;
51594;SDS011;37677;53.254;6.594;2023-05-07T12:23:16;13.63;;;12.00;;
51594;SDS011;37677;53.254;6.594;2023-05-07T12:25:43;12.55;;;11.35;;
51594;SDS011;37677;53.254;6.594;2023-05-07T12:28:15;13.13;;;11.55;;
51594;SDS011;37677;53.254;6.594;2023-05-07T12:30:42;13.57;;;12.27;;
51594;SDS011;37677;53.254;6.594;2023-05-07T12:33:09;13.82;;;12.45;;
51594;SDS011;37677;53.254;6.594;2023-05-07T12:35:42;14.32;;;12.93;;
51594;SDS011;37677;53.254;6.594;2023-05-07T12:38:09;14.23;;;12.93;;
51594;SDS011;37677;53.254;6.594;2023-05-07T12:40:37;13.68;;;12.48;;
51594;SDS011;37677;53.254;6.594;2023-05-07T12:43:04;13.57;;;12.38;;
51594;SDS011;37677;53.254;6.594;2023-05-07T12:45:29;14.38;;;12.88;;
51594;SDS011;37677;53.254;6.594;2023-05-07T12:47:55;15.18;;;13.77;;
51594;SDS011;37677;53.254;6.594;2023-05-07T12:50:21;14.15;;;12.90;;
51594;SDS011;37677;53.254;6.594;2023-05-07T12:52:47;14.35;;;12.95;;
51594;SDS011;37677;53.254;6.594;2023-05-07T12:55:14;14.15;;;12.68;;
51594;SDS011;37677;53.254;6.594;2023-05-07T12:57:41;15.15;;;13.77;;
51594;SDS011;37677;53.254;6.594;2023-05-07T13:00:08;14.05;;;12.75;;
51594;SDS011;37677;53.254;6.594;2023-05-07T13:02:37;13.93;;;12.63;;
51594;SDS011;37677;53.254;6.594;2023-05-07T13:05:04;14.88;;;13.57;;
51594;SDS011;37677;53.254;6.594;2023-05-07T13:07:30;14.90;;;13.60;;
51594;SDS011;37677;53.254;6.594;2023-05-07T13:09:56;15.40;;;13.90;;
51594;SDS011;37677;53.254;6.594;2023-05-07T13:12:21;15.30;;;13.90;;
51594;SDS011;37677;53.254;6.594;2023-05-07T13:14:47;14.80;;;13.60;;
51594;SDS011;37677;53.254;6.594;2023-05-07T13:17:13;14.30;;;13.07;;
51594;SDS011;37677;53.254;6.594;2023-05-07T13:19:38;14.80;;;13.55;;
51594;SDS011;37677;53.254;6.594;2023-05-07T13:22:04;15.02;;;13.75;;
51594;SDS011;37677;53.254;6.594;2023-05-07T13:24:30;14.13;;;12.82;;
51594;SDS011;37677;53.254;6.594;2023-05-07T13:26:55;14.93;;;13.55;;
51594;SDS011;37677;53.254;6.594;2023-05-07T13:29:21;14.00;;;12.80;;
51594;SDS011;37677;53.254;6.594;2023-05-07T13:31:54;14.18;;;12.88;;
51594;SDS011;37677;53.254;6.594;2023-05-07T13:34:20;14.45;;;13.15;;
51594;SDS011;37677;53.254;6.594;2023-05-07T13:36:45;15.45;;;14.15;;
51594;SDS011;37677;53.254;6.594;2023-05-07T13:39:11;15.00;;;13.48;;
51594;SDS011;37677;53.254;6.594;2023-05-07T13:41:37;13.23;;;12.13;;
51594;SDS011;37677;53.254;6.594;2023-05-07T13:44:02;13.82;;;12.70;;
51594;SDS011;37677;53.254;6.594;2023-05-07T13:46:28;14.32;;;13.02;;
51594;SDS011;37677;53.254;6.594;2023-05-07T13:48:54;12.82;;;11.73;;
51594;SDS011;37677;53.254;6.594;2023-05-07T13:51:20;13.65;;;12.55;;
51594;SDS011;37677;53.254;6.594;2023-05-07T13:53:58;13.20;;;12.10;;
51594;SDS011;37677;53.254;6.594;2023-05-07T13:56:35;12.77;;;11.68;;
51594;SDS011;37677;53.254;6.594;2023-05-07T13:59:01;12.63;;;11.52;;
51594;SDS011;37677;53.254;6.594;2023-05-07T14:01:35;13.07;;;11.98;;
51594;SDS011;37677;53.254;6.594;2023-05-07T14:04:04;12.43;;;11.25;;
51594;SDS011;37677;53.254;6.594;2023-05-07T14:06:30;12.63;;;11.43;;
51594;SDS011;37677;53.254;6.594;2023-05-07T14:08:56;12.45;;;11.30;;
51594;SDS011;37677;53.254;6.594;2023-05-07T14:11:23;12.32;;;11.32;;
51594;SDS011;37677;53.254;6.594;2023-05-07T14:13:49;12.18;;;11.05;;
51594;SDS011;37677;53.254;6.594;2023-05-07T14:16:15;12.00;;;10.85;;
51594;SDS011;37677;53.254;6.594;2023-05-07T14:18:40;12.32;;;11.10;;
51594;SDS011;37677;53.254;6.594;2023-05-07T14:21:06;12.68;;;11.57;;
51594;SDS011;37677;53.254;6.594;2023-05-07T14:23:32;12.63;;;11.52;;
51594;SDS011;37677;53.254;6.594;2023-05-07T14:25:58;11.52;;;10.63;;
51594;SDS011;37677;53.254;6.594;2023-05-07T14:28:23;11.50;;;10.48;;
51594;SDS011;37677;53.254;6.594;2023-05-07T14:30:49;11.55;;;10.65;;
51594;SDS011;37677;53.254;6.594;2023-05-07T14:33:15;11.75;;;10.68;;
51594;SDS011;37677;53.254;6.594;2023-05-07T14:35:41;11.43;;;10.43;;
51594;SDS011;37677;53.254;6.594;2023-05-07T14:38:06;10.65;;;9.65;;
51594;SDS011;37677;53.254;6.594;2023-05-07T14:40:32;10.73;;;9.65;;
51594;SDS011;37677;53.254;6.594;2023-05-07T14:42:57;10.52;;;9.70;;